createdAt,value
2017-08-27T00:00:09.362Z,0
2017-08-27T00:00:49.912Z,0
2017-08-27T00:01:30.476Z,0
2017-08-27T00:02:11.038Z,0
2017-08-27T00:02:51.623Z,0
2017-08-27T00:03:32.181Z,0
2017-08-27T00:04:12.738Z,0
2017-08-27T00:04:53.322Z,0
2017-08-27T00:05:33.890Z,0
2017-08-27T00:06:15.230Z,0
2017-08-27T00:06:55.855Z,0
2017-08-27T00:07:36.416Z,0
2017-08-27T00:08:16.985Z,0
2017-08-27T00:08:57.540Z,0
2017-08-27T00:09:38.105Z,0
2017-08-27T00:10:18.645Z,0
2017-08-27T00:10:59.231Z,0
2017-08-27T00:11:39.780Z,0
2017-08-27T00:12:20.341Z,0
2017-08-27T00:13:00.915Z,0
2017-08-27T00:13:41.512Z,0
2017-08-27T00:14:22.066Z,0
2017-08-27T00:15:03.552Z,0
2017-08-27T00:15:44.216Z,0
2017-08-27T00:16:24.801Z,0
2017-08-27T00:17:05.359Z,0
2017-08-27T00:17:45.916Z,0
2017-08-27T00:18:26.473Z,0
2017-08-27T00:19:07.057Z,0
2017-08-27T00:19:47.627Z,0
2017-08-27T00:20:28.291Z,0
2017-08-27T00:21:08.840Z,0
2017-08-27T00:21:49.424Z,0
2017-08-27T00:22:29.982Z,0
2017-08-27T00:23:10.536Z,0
2017-08-27T00:23:51.087Z,0
2017-08-27T00:24:31.643Z,0
2017-08-27T00:25:12.217Z,0
2017-08-27T00:25:52.795Z,0
2017-08-27T00:26:33.355Z,0
2017-08-27T00:27:14.111Z,0
2017-08-27T00:27:54.600Z,0
2017-08-27T00:28:35.161Z,0
2017-08-27T00:29:15.723Z,0
2017-08-27T00:29:56.277Z,0
2017-08-27T00:30:36.856Z,0
2017-08-27T00:31:17.562Z,0
2017-08-27T00:31:58.148Z,0
2017-08-27T00:32:38.711Z,0
2017-08-27T00:33:19.282Z,0
2017-08-27T00:33:59.857Z,0
2017-08-27T00:34:40.412Z,0
2017-08-27T00:35:20.974Z,0
2017-08-27T00:36:01.671Z,0
2017-08-27T00:36:42.113Z,0
2017-08-27T00:37:22.644Z,0
2017-08-27T00:38:03.200Z,0
2017-08-27T00:38:44.088Z,0
2017-08-27T00:39:24.567Z,0
2017-08-27T00:40:05.117Z,0
2017-08-27T00:40:45.683Z,0
2017-08-27T00:41:26.259Z,0
2017-08-27T00:42:06.830Z,0
2017-08-27T00:42:47.399Z,0
2017-08-27T00:43:27.970Z,0
2017-08-27T00:44:08.526Z,0
2017-08-27T00:44:49.097Z,0
2017-08-27T00:45:29.669Z,0
2017-08-27T00:46:10.218Z,0
2017-08-27T00:46:50.780Z,0
2017-08-27T00:47:31.361Z,0
2017-08-27T00:48:11.914Z,0
2017-08-27T00:48:52.492Z,0
2017-08-27T00:49:33.042Z,0
2017-08-27T00:50:13.611Z,0
2017-08-27T00:50:54.171Z,0
2017-08-27T00:51:34.739Z,0
2017-08-27T00:52:15.296Z,0
2017-08-27T00:52:55.866Z,0
2017-08-27T00:53:36.444Z,0
2017-08-27T00:54:17.014Z,0
2017-08-27T00:54:57.569Z,0
2017-08-27T00:55:38.155Z,0
2017-08-27T00:56:18.720Z,0
2017-08-27T00:56:59.290Z,0
2017-08-27T00:57:39.876Z,0
2017-08-27T00:58:20.445Z,0
2017-08-27T00:59:00.990Z,0
2017-08-27T00:59:41.562Z,0
2017-08-27T01:00:22.126Z,0
2017-08-27T01:01:02.705Z,0
2017-08-27T01:01:43.278Z,0
2017-08-27T01:02:24.011Z,0
2017-08-27T01:03:04.698Z,0
2017-08-27T01:03:45.264Z,0
2017-08-27T01:04:25.844Z,0
2017-08-27T01:05:06.418Z,0
2017-08-27T01:05:46.984Z,0
2017-08-27T01:06:27.553Z,0
2017-08-27T01:07:08.130Z,0
2017-08-27T01:07:48.700Z,0
2017-08-27T01:08:29.263Z,0
2017-08-27T01:09:09.853Z,0
2017-08-27T01:09:50.421Z,0
2017-08-27T01:10:30.990Z,0
2017-08-27T01:11:11.542Z,0
2017-08-27T01:11:52.101Z,0
2017-08-27T01:12:32.652Z,0
2017-08-27T01:13:13.235Z,0
2017-08-27T01:13:53.807Z,0
2017-08-27T01:14:34.383Z,0
2017-08-27T01:15:14.938Z,0
2017-08-27T01:15:55.500Z,0
2017-08-27T01:16:36.073Z,0
2017-08-27T01:17:16.659Z,0
2017-08-27T01:17:57.201Z,0
2017-08-27T01:18:37.794Z,0
2017-08-27T01:19:18.375Z,0
2017-08-27T01:19:58.940Z,0
2017-08-27T01:20:39.517Z,0
2017-08-27T01:21:20.081Z,0
2017-08-27T01:22:00.650Z,0
2017-08-27T01:22:41.237Z,0
2017-08-27T01:23:21.798Z,0
2017-08-27T01:24:02.363Z,0
2017-08-27T01:24:42.926Z,0
2017-08-27T01:25:23.506Z,0
2017-08-27T01:26:04.087Z,0
2017-08-27T01:26:44.642Z,0
2017-08-27T01:27:25.212Z,0
2017-08-27T01:28:05.791Z,0
2017-08-27T01:28:46.378Z,0
2017-08-27T01:29:26.913Z,0
2017-08-27T01:30:07.467Z,0
2017-08-27T01:30:48.043Z,0
2017-08-27T01:31:28.610Z,0
2017-08-27T01:32:09.169Z,0
2017-08-27T01:32:49.753Z,0
2017-08-27T01:33:30.321Z,0
2017-08-27T01:34:10.888Z,0
2017-08-27T01:34:51.459Z,0
2017-08-27T01:35:32.035Z,0
2017-08-27T01:36:12.612Z,0
2017-08-27T01:36:53.162Z,0
2017-08-27T01:37:33.722Z,0
2017-08-27T01:38:14.279Z,0
2017-08-27T01:38:54.863Z,0
2017-08-27T01:39:35.413Z,0
2017-08-27T01:40:15.968Z,0
2017-08-27T01:40:56.540Z,0
2017-08-27T01:41:37.111Z,0
2017-08-27T01:42:17.673Z,0
2017-08-27T01:42:58.228Z,0
2017-08-27T01:43:38.910Z,0
2017-08-27T01:44:19.479Z,0
2017-08-27T01:45:00.039Z,0
2017-08-27T01:45:40.622Z,0
2017-08-27T01:46:21.184Z,0
2017-08-27T01:47:01.750Z,0
2017-08-27T01:47:42.321Z,0
2017-08-27T01:48:22.911Z,0
2017-08-27T01:49:03.479Z,0
2017-08-27T01:49:44.060Z,0
2017-08-27T01:50:24.614Z,0
2017-08-27T01:51:05.175Z,0
2017-08-27T01:51:45.748Z,0
2017-08-27T01:52:26.321Z,0
2017-08-27T01:53:06.898Z,0
2017-08-27T01:53:47.467Z,0
2017-08-27T01:54:28.037Z,0
2017-08-27T01:55:08.613Z,0
2017-08-27T01:55:49.176Z,0
2017-08-27T01:56:29.751Z,0
2017-08-27T01:57:10.319Z,0
2017-08-27T01:57:50.898Z,0
2017-08-27T01:58:31.463Z,0
2017-08-27T01:59:12.017Z,0
2017-08-27T01:59:52.580Z,0
2017-08-27T02:00:33.133Z,0
2017-08-27T02:01:13.723Z,0
2017-08-27T02:01:54.285Z,0
2017-08-27T02:02:34.872Z,0
2017-08-27T02:03:15.425Z,0
2017-08-27T02:03:55.993Z,0
2017-08-27T02:04:36.570Z,0
2017-08-27T02:05:17.151Z,0
2017-08-27T02:05:57.729Z,0
2017-08-27T02:06:38.299Z,0
2017-08-27T02:07:18.870Z,0
2017-08-27T02:07:59.440Z,0
2017-08-27T02:08:39.998Z,0
2017-08-27T02:09:20.584Z,0
2017-08-27T02:10:01.139Z,0
2017-08-27T02:10:41.707Z,0
2017-08-27T02:11:22.296Z,0
2017-08-27T02:12:02.864Z,0
2017-08-27T02:12:43.445Z,0
2017-08-27T02:13:24.024Z,0
2017-08-27T02:14:04.590Z,0
2017-08-27T02:14:45.147Z,0
2017-08-27T02:15:25.730Z,0
2017-08-27T02:16:06.318Z,0
2017-08-27T02:16:46.874Z,0
2017-08-27T02:17:27.440Z,0
2017-08-27T02:18:07.998Z,0
2017-08-27T02:18:48.565Z,0
2017-08-27T02:19:29.103Z,0
2017-08-27T02:20:09.673Z,0
2017-08-27T02:20:50.253Z,0
2017-08-27T02:21:30.817Z,0
2017-08-27T02:22:11.379Z,0
2017-08-27T02:22:51.949Z,0
2017-08-27T02:23:32.530Z,0
2017-08-27T02:24:13.081Z,0
2017-08-27T02:24:53.641Z,0
2017-08-27T02:25:34.205Z,0
2017-08-27T02:26:14.754Z,0
2017-08-27T02:26:55.327Z,0
2017-08-27T02:27:35.885Z,0
2017-08-27T02:28:16.435Z,0
2017-08-27T02:28:57.007Z,0
2017-08-27T02:29:37.577Z,0
2017-08-27T02:30:18.156Z,0
2017-08-27T02:30:58.722Z,0
2017-08-27T02:31:39.288Z,0
2017-08-27T02:32:19.863Z,0
2017-08-27T02:33:00.412Z,0
2017-08-27T02:33:40.974Z,0
2017-08-27T02:34:21.539Z,0
2017-08-27T02:35:02.099Z,0
2017-08-27T02:35:42.678Z,0
2017-08-27T02:36:23.234Z,0
2017-08-27T02:37:03.833Z,0
2017-08-27T02:37:44.393Z,0
2017-08-27T02:38:24.957Z,0
2017-08-27T02:39:05.508Z,0
2017-08-27T02:39:46.089Z,0
2017-08-27T02:40:26.645Z,0
2017-08-27T02:41:07.199Z,0
2017-08-27T02:41:47.768Z,0
2017-08-27T02:42:28.330Z,0
2017-08-27T02:43:08.904Z,0
2017-08-27T02:43:49.473Z,0
2017-08-27T02:44:30.042Z,0
2017-08-27T02:45:10.611Z,0
2017-08-27T02:45:51.157Z,0
2017-08-27T02:46:31.712Z,0
2017-08-27T02:47:12.320Z,0
2017-08-27T02:47:52.876Z,0
2017-08-27T02:48:33.426Z,0
2017-08-27T02:49:14.023Z,0
2017-08-27T02:49:54.564Z,0
2017-08-27T02:50:35.119Z,0
2017-08-27T02:51:15.688Z,0
2017-08-27T02:51:56.248Z,0
2017-08-27T02:52:36.819Z,0
2017-08-27T02:53:17.390Z,0
2017-08-27T02:53:57.951Z,0
2017-08-27T02:54:38.480Z,0
2017-08-27T02:55:19.042Z,0
2017-08-27T02:55:59.601Z,0
2017-08-27T02:56:40.202Z,0
2017-08-27T02:57:20.748Z,0
2017-08-27T02:58:01.263Z,0
2017-08-27T02:58:41.825Z,0
2017-08-27T02:59:22.402Z,0
2017-08-27T03:00:02.945Z,0
2017-08-27T03:00:43.519Z,0
2017-08-27T03:01:24.082Z,0
2017-08-27T03:02:04.629Z,0
2017-08-27T03:02:45.202Z,0
2017-08-27T03:03:25.791Z,0
2017-08-27T03:04:06.369Z,0
2017-08-27T03:04:46.922Z,0
2017-08-27T03:05:27.505Z,0
2017-08-27T03:06:08.054Z,0
2017-08-27T03:06:48.609Z,0
2017-08-27T03:07:29.177Z,0
2017-08-27T03:08:09.737Z,0
2017-08-27T03:08:50.288Z,0
2017-08-27T03:09:30.865Z,0
2017-08-27T03:10:11.396Z,0
2017-08-27T03:10:51.959Z,0
2017-08-27T03:11:32.538Z,0
2017-08-27T03:12:13.100Z,0
2017-08-27T03:12:53.670Z,0
2017-08-27T03:13:34.219Z,0
2017-08-27T03:14:14.783Z,0
2017-08-27T03:14:55.341Z,0
2017-08-27T03:15:35.873Z,0
2017-08-27T03:16:16.411Z,0
2017-08-27T03:16:56.973Z,0
2017-08-27T03:17:37.527Z,0
2017-08-27T03:18:18.094Z,0
2017-08-27T03:18:58.657Z,0
2017-08-27T03:19:39.230Z,0
2017-08-27T03:20:19.801Z,0
2017-08-27T03:21:00.368Z,0
2017-08-27T03:21:40.929Z,0
2017-08-27T03:22:21.478Z,0
2017-08-27T03:23:02.040Z,0
2017-08-27T03:23:42.593Z,0
2017-08-27T03:24:23.174Z,0
2017-08-27T03:25:03.747Z,0
2017-08-27T03:25:44.300Z,0
2017-08-27T03:26:24.873Z,0
2017-08-27T03:27:05.436Z,0
2017-08-27T03:27:45.983Z,0
2017-08-27T03:28:26.545Z,0
2017-08-27T03:29:07.092Z,0
2017-08-27T03:29:47.632Z,0
2017-08-27T03:30:28.166Z,0
2017-08-27T03:31:08.702Z,0
2017-08-27T03:31:49.205Z,0
2017-08-27T03:32:29.755Z,0
2017-08-27T03:33:10.273Z,0
2017-08-27T03:33:50.805Z,0
2017-08-27T03:34:31.391Z,0
2017-08-27T03:35:11.927Z,0
2017-08-27T03:35:52.466Z,0
2017-08-27T03:36:33.064Z,0
2017-08-27T03:37:13.628Z,0
2017-08-27T03:37:54.164Z,0
2017-08-27T03:38:34.719Z,0
2017-08-27T03:39:15.259Z,0
2017-08-27T03:39:55.800Z,0
2017-08-27T03:40:36.404Z,0
2017-08-27T03:41:16.903Z,0
2017-08-27T03:41:57.450Z,0
2017-08-27T03:42:37.978Z,0
2017-08-27T03:43:18.558Z,0
2017-08-27T03:43:59.034Z,0
2017-08-27T03:44:39.617Z,0
2017-08-27T03:45:20.175Z,0
2017-08-27T03:46:00.730Z,0
2017-08-27T03:46:41.312Z,0
2017-08-27T03:47:21.856Z,0
2017-08-27T03:48:02.423Z,0
2017-08-27T03:48:43.049Z,0
2017-08-27T03:49:23.586Z,0
2017-08-27T03:50:04.101Z,0
2017-08-27T03:50:44.677Z,0
2017-08-27T03:51:25.232Z,0
2017-08-27T03:52:05.814Z,0
2017-08-27T03:52:46.379Z,0
2017-08-27T03:53:26.944Z,0
2017-08-27T03:54:07.529Z,0
2017-08-27T03:54:48.074Z,0
2017-08-27T03:55:28.634Z,0
2017-08-27T03:56:09.188Z,0
2017-08-27T03:56:49.750Z,0
2017-08-27T03:57:30.312Z,0
2017-08-27T03:58:10.896Z,0
2017-08-27T03:58:51.441Z,0
2017-08-27T03:59:32.046Z,0
2017-08-27T04:00:12.594Z,0
2017-08-27T04:00:53.164Z,0
2017-08-27T04:01:33.727Z,0
2017-08-27T04:02:14.271Z,0
2017-08-27T04:02:54.829Z,0
2017-08-27T04:03:35.380Z,0
2017-08-27T04:04:15.926Z,0
2017-08-27T04:04:56.470Z,0
2017-08-27T04:05:37.022Z,0
2017-08-27T04:06:17.571Z,0
2017-08-27T04:06:58.142Z,0
2017-08-27T04:07:38.690Z,0
2017-08-27T04:08:19.239Z,0
2017-08-27T04:08:59.801Z,0
2017-08-27T04:09:41.050Z,0
2017-08-27T04:10:22.029Z,0
2017-08-27T04:11:02.543Z,0
2017-08-27T04:11:43.083Z,0
2017-08-27T04:12:23.650Z,0
2017-08-27T04:13:04.193Z,0
2017-08-27T04:13:44.760Z,0
2017-08-27T04:14:25.335Z,0
2017-08-27T04:15:05.932Z,0
2017-08-27T04:15:46.484Z,0
2017-08-27T04:16:27.048Z,0
2017-08-27T04:17:07.629Z,0
2017-08-27T04:17:48.188Z,0
2017-08-27T04:18:28.757Z,0
2017-08-27T04:19:09.307Z,0
2017-08-27T04:19:49.882Z,0
2017-08-27T04:20:30.449Z,0
2017-08-27T04:21:11.040Z,0
2017-08-27T04:21:51.616Z,0
2017-08-27T04:22:32.160Z,0
2017-08-27T04:23:12.741Z,0
2017-08-27T04:23:53.352Z,0
2017-08-27T04:24:33.867Z,0
2017-08-27T04:25:14.444Z,0
2017-08-27T04:25:55.019Z,0
2017-08-27T04:26:35.582Z,0
2017-08-27T04:27:16.149Z,0
2017-08-27T04:27:56.717Z,0
2017-08-27T04:28:37.285Z,0
2017-08-27T04:29:17.857Z,0
2017-08-27T04:29:58.419Z,0
2017-08-27T04:30:39.005Z,0
2017-08-27T04:31:19.574Z,0
2017-08-27T04:32:00.156Z,0
2017-08-27T04:32:40.725Z,0
2017-08-27T04:33:21.305Z,0
2017-08-27T04:34:01.864Z,0
2017-08-27T04:34:42.431Z,0
2017-08-27T04:35:23.000Z,0
2017-08-27T04:36:03.585Z,0
2017-08-27T04:36:44.143Z,0
2017-08-27T04:37:24.702Z,0
2017-08-27T04:38:05.271Z,0
2017-08-27T04:38:45.834Z,0
2017-08-27T04:39:26.394Z,0
2017-08-27T04:40:06.983Z,0
2017-08-27T04:40:47.530Z,0
2017-08-27T04:41:28.070Z,0
2017-08-27T04:42:08.650Z,0
2017-08-27T04:42:49.194Z,0
2017-08-27T04:43:29.778Z,0
2017-08-27T04:44:10.316Z,0
2017-08-27T04:44:50.889Z,0
2017-08-27T04:45:31.435Z,0
2017-08-27T04:46:11.992Z,0
2017-08-27T04:46:52.537Z,0
2017-08-27T04:47:33.104Z,0
2017-08-27T04:48:13.650Z,5
2017-08-27T04:48:54.170Z,5
2017-08-27T04:49:34.730Z,5
2017-08-27T04:50:15.272Z,5
2017-08-27T04:50:55.836Z,5
2017-08-27T04:51:36.434Z,5
2017-08-27T04:52:16.996Z,5
2017-08-27T04:52:57.504Z,5
2017-08-27T04:53:38.083Z,5
2017-08-27T04:54:18.639Z,5
2017-08-27T04:54:59.221Z,5
2017-08-27T04:55:39.768Z,5
2017-08-27T04:56:20.291Z,5
2017-08-27T04:57:00.860Z,5
2017-08-27T04:57:41.396Z,5
2017-08-27T04:58:21.943Z,5
2017-08-27T04:59:02.492Z,5
2017-08-27T04:59:43.008Z,5
2017-08-27T05:00:23.555Z,5
2017-08-27T05:01:04.107Z,10
2017-08-27T05:01:44.719Z,10
2017-08-27T05:02:25.232Z,10
2017-08-27T05:03:05.744Z,10
2017-08-27T05:03:46.276Z,10
2017-08-27T05:04:26.795Z,10
2017-08-27T05:05:07.296Z,10
2017-08-27T05:05:47.871Z,10
2017-08-27T05:06:28.349Z,10
2017-08-27T05:07:08.879Z,10
2017-08-27T05:07:49.458Z,10
2017-08-27T05:08:30.026Z,15
2017-08-27T05:09:10.585Z,15
2017-08-27T05:09:51.096Z,15
2017-08-27T05:10:31.655Z,15
2017-08-27T05:11:12.231Z,15
2017-08-27T05:11:52.784Z,15
2017-08-27T05:12:33.341Z,15
2017-08-27T05:13:13.920Z,15
2017-08-27T05:13:54.475Z,15
2017-08-27T05:14:35.045Z,15
2017-08-27T05:15:15.615Z,15
2017-08-27T05:15:56.173Z,15
2017-08-27T05:16:36.742Z,15
2017-08-27T05:17:17.316Z,15
2017-08-27T05:17:57.886Z,15
2017-08-27T05:18:38.444Z,15
2017-08-27T05:19:19.028Z,20
2017-08-27T05:19:59.562Z,15
2017-08-27T05:20:40.127Z,15
2017-08-27T05:21:20.677Z,15
2017-08-27T05:22:01.240Z,15
2017-08-27T05:22:41.806Z,15
2017-08-27T05:23:22.372Z,15
2017-08-27T05:24:02.904Z,15
2017-08-27T05:24:43.453Z,15
2017-08-27T05:25:24.000Z,15
2017-08-27T05:26:04.566Z,15
2017-08-27T05:26:45.118Z,15
2017-08-27T05:27:25.673Z,15
2017-08-27T05:28:06.243Z,15
2017-08-27T05:28:46.819Z,15
2017-08-27T05:29:27.391Z,15
2017-08-27T05:30:07.964Z,15
2017-08-27T05:30:48.532Z,15
2017-08-27T05:31:29.092Z,15
2017-08-27T05:32:09.675Z,15
2017-08-27T05:32:50.242Z,15
2017-08-27T05:33:30.815Z,15
2017-08-27T05:34:11.372Z,15
2017-08-27T05:34:51.916Z,15
2017-08-27T05:35:32.481Z,15
2017-08-27T05:36:13.029Z,15
2017-08-27T05:36:53.596Z,15
2017-08-27T05:37:34.166Z,15
2017-08-27T05:38:14.760Z,15
2017-08-27T05:38:55.302Z,15
2017-08-27T05:39:35.880Z,15
2017-08-27T05:40:16.428Z,15
2017-08-27T05:40:57.006Z,10
2017-08-27T05:41:37.532Z,10
2017-08-27T05:42:18.091Z,10
2017-08-27T05:42:58.650Z,10
2017-08-27T05:43:39.187Z,10
2017-08-27T05:44:19.752Z,10
2017-08-27T05:45:00.328Z,10
2017-08-27T05:45:40.886Z,10
2017-08-27T05:46:21.461Z,10
2017-08-27T05:47:02.046Z,10
2017-08-27T05:47:42.601Z,10
2017-08-27T05:48:23.160Z,10
2017-08-27T05:49:03.758Z,10
2017-08-27T05:49:44.326Z,10
2017-08-27T05:50:24.910Z,10
2017-08-27T05:51:05.466Z,10
2017-08-27T05:51:46.043Z,10
2017-08-27T05:52:26.607Z,10
2017-08-27T05:53:07.184Z,10
2017-08-27T05:53:47.767Z,10
2017-08-27T05:54:28.316Z,10
2017-08-27T05:55:08.884Z,10
2017-08-27T05:55:49.440Z,10
2017-08-27T05:56:30.001Z,10
2017-08-27T05:57:10.573Z,10
2017-08-27T05:57:51.140Z,10
2017-08-27T05:58:31.703Z,10
2017-08-27T05:59:12.274Z,10
2017-08-27T05:59:52.835Z,10
2017-08-27T06:00:33.418Z,10
2017-08-27T06:01:13.988Z,10
2017-08-27T06:01:54.579Z,15
2017-08-27T06:02:35.162Z,15
2017-08-27T06:03:15.740Z,15
2017-08-27T06:03:56.301Z,15
2017-08-27T06:04:36.870Z,15
2017-08-27T06:05:17.450Z,15
2017-08-27T06:05:58.028Z,15
2017-08-27T06:06:38.585Z,15
2017-08-27T06:07:19.164Z,15
2017-08-27T06:07:59.715Z,15
2017-08-27T06:08:40.267Z,15
2017-08-27T06:09:20.832Z,15
2017-08-27T06:10:01.402Z,15
2017-08-27T06:10:41.973Z,15
2017-08-27T06:11:22.531Z,15
2017-08-27T06:12:03.097Z,15
2017-08-27T06:12:43.661Z,15
2017-08-27T06:13:24.217Z,15
2017-08-27T06:14:04.759Z,15
2017-08-27T06:14:45.302Z,15
2017-08-27T06:15:25.856Z,15
2017-08-27T06:16:06.428Z,15
2017-08-27T06:16:46.993Z,15
2017-08-27T06:17:27.552Z,15
2017-08-27T06:18:08.120Z,15
2017-08-27T06:18:48.704Z,15
2017-08-27T06:19:29.273Z,15
2017-08-27T06:20:09.838Z,15
2017-08-27T06:20:50.407Z,15
2017-08-27T06:21:31.023Z,15
2017-08-27T06:22:11.604Z,15
2017-08-27T06:22:52.171Z,15
2017-08-27T06:23:32.735Z,15
2017-08-27T06:24:13.311Z,15
2017-08-27T06:24:53.872Z,15
2017-08-27T06:25:34.439Z,15
2017-08-27T06:26:14.998Z,15
2017-08-27T06:26:55.560Z,15
2017-08-27T06:27:36.137Z,15
2017-08-27T06:28:16.727Z,15
2017-08-27T06:28:57.284Z,15
2017-08-27T06:29:37.841Z,15
2017-08-27T06:30:18.393Z,15
2017-08-27T06:30:58.966Z,15
2017-08-27T06:31:39.535Z,15
2017-08-27T06:32:20.117Z,15
2017-08-27T06:33:00.675Z,15
2017-08-27T06:33:41.234Z,15
2017-08-27T06:34:21.793Z,15
2017-08-27T06:35:02.350Z,15
2017-08-27T06:35:42.910Z,15
2017-08-27T06:36:23.471Z,15
2017-08-27T06:37:04.036Z,15
2017-08-27T06:37:44.595Z,15
2017-08-27T06:38:25.159Z,15
2017-08-27T06:39:05.719Z,15
2017-08-27T06:39:46.284Z,15
2017-08-27T06:40:26.857Z,15
2017-08-27T06:41:07.404Z,15
2017-08-27T06:41:47.975Z,15
2017-08-27T06:42:28.561Z,15
2017-08-27T06:43:09.130Z,15
2017-08-27T06:43:49.695Z,15
2017-08-27T06:44:30.253Z,15
2017-08-27T06:45:10.838Z,15
2017-08-27T06:45:51.393Z,15
2017-08-27T06:46:31.959Z,15
2017-08-27T06:47:12.537Z,15
2017-08-27T06:47:53.097Z,15
2017-08-27T06:48:33.677Z,20
2017-08-27T06:49:14.234Z,20
2017-08-27T06:49:54.807Z,20
2017-08-27T06:50:35.366Z,20
2017-08-27T06:51:15.932Z,20
2017-08-27T06:51:56.498Z,20
2017-08-27T06:52:37.064Z,20
2017-08-27T06:53:17.625Z,20
2017-08-27T06:53:58.193Z,20
2017-08-27T06:54:38.755Z,20
2017-08-27T06:55:19.334Z,20
2017-08-27T06:55:59.900Z,20
2017-08-27T06:56:40.469Z,20
2017-08-27T06:57:21.051Z,20
2017-08-27T06:58:01.610Z,20
2017-08-27T06:58:42.192Z,20
2017-08-27T06:59:22.781Z,20
2017-08-27T07:00:03.341Z,20
2017-08-27T07:00:43.898Z,20
2017-08-27T07:01:24.489Z,20
2017-08-27T07:02:05.058Z,20
2017-08-27T07:02:45.621Z,20
2017-08-27T07:03:26.175Z,20
2017-08-27T07:04:06.721Z,20
2017-08-27T07:04:47.281Z,20
2017-08-27T07:05:27.856Z,20
2017-08-27T07:06:08.415Z,20
2017-08-27T07:06:49.002Z,20
2017-08-27T07:07:29.556Z,25
2017-08-27T07:08:10.120Z,25
2017-08-27T07:08:50.681Z,25
2017-08-27T07:09:31.242Z,25
2017-08-27T07:10:11.785Z,25
2017-08-27T07:10:52.349Z,25
2017-08-27T07:11:32.926Z,25
2017-08-27T07:12:13.503Z,25
2017-08-27T07:12:54.057Z,25
2017-08-27T07:13:34.628Z,25
2017-08-27T07:14:15.205Z,25
2017-08-27T07:14:55.764Z,25
2017-08-27T07:15:36.355Z,25
2017-08-27T07:16:16.922Z,30
2017-08-27T07:16:57.484Z,30
2017-08-27T07:17:38.049Z,30
2017-08-27T07:18:18.609Z,30
2017-08-27T07:18:59.176Z,30
2017-08-27T07:19:39.747Z,30
2017-08-27T07:20:20.328Z,30
2017-08-27T07:21:00.892Z,30
2017-08-27T07:21:41.461Z,30
2017-08-27T07:22:22.019Z,30
2017-08-27T07:23:02.597Z,30
2017-08-27T07:23:43.147Z,30
2017-08-27T07:24:23.752Z,30
2017-08-27T07:25:04.262Z,30
2017-08-27T07:25:44.802Z,30
2017-08-27T07:26:25.355Z,35
2017-08-27T07:27:05.898Z,35
2017-08-27T07:27:46.568Z,35
2017-08-27T07:28:27.156Z,35
2017-08-27T07:29:08.329Z,40
2017-08-27T07:29:48.761Z,40
2017-08-27T07:30:29.384Z,40
2017-08-27T07:31:09.949Z,40
2017-08-27T07:31:50.462Z,40
2017-08-27T07:32:30.945Z,40
2017-08-27T07:33:11.496Z,40
2017-08-27T07:33:52.059Z,45
2017-08-27T07:34:32.605Z,45
2017-08-27T07:35:13.158Z,45
2017-08-27T07:35:53.796Z,50
2017-08-27T07:36:34.339Z,50
2017-08-27T07:37:14.877Z,55
2017-08-27T07:37:55.389Z,60
2017-08-27T07:38:35.924Z,55
2017-08-27T07:39:16.507Z,55
2017-08-27T07:39:57.013Z,55
2017-08-27T07:40:37.588Z,55
2017-08-27T07:41:18.157Z,55
2017-08-27T07:41:58.755Z,55
2017-08-27T07:42:39.289Z,50
2017-08-27T07:43:19.850Z,55
2017-08-27T07:44:00.407Z,55
2017-08-27T07:44:40.975Z,55
2017-08-27T07:45:21.637Z,55
2017-08-27T07:46:02.067Z,55
2017-08-27T07:46:42.628Z,55
2017-08-27T07:47:23.179Z,60
2017-08-27T07:48:03.755Z,60
2017-08-27T07:48:44.294Z,60
2017-08-27T07:49:24.820Z,60
2017-08-27T07:50:05.385Z,60
2017-08-27T07:50:45.952Z,60
2017-08-27T07:51:26.497Z,60
2017-08-27T07:52:07.083Z,60
2017-08-27T07:52:47.657Z,60
2017-08-27T07:53:28.229Z,60
2017-08-27T07:54:08.730Z,60
2017-08-27T07:54:49.314Z,65
2017-08-27T07:55:30.537Z,65
2017-08-27T07:56:11.089Z,65
2017-08-27T07:56:51.667Z,60
2017-08-27T07:57:32.233Z,60
2017-08-27T07:58:12.782Z,60
2017-08-27T07:58:53.346Z,60
2017-08-27T07:59:33.895Z,60
2017-08-27T08:00:14.468Z,60
2017-08-27T08:00:55.044Z,60
2017-08-27T08:01:35.611Z,60
2017-08-27T08:02:16.185Z,60
2017-08-27T08:02:56.764Z,60
2017-08-27T08:03:37.342Z,60
2017-08-27T08:04:17.902Z,65
2017-08-27T08:04:58.444Z,65
2017-08-27T08:05:39.018Z,60
2017-08-27T08:06:19.597Z,60
2017-08-27T08:07:00.154Z,60
2017-08-27T08:07:40.710Z,65
2017-08-27T08:08:21.265Z,60
2017-08-27T08:09:01.847Z,60
2017-08-27T08:09:42.398Z,65
2017-08-27T08:10:22.961Z,65
2017-08-27T08:11:03.536Z,65
2017-08-27T08:11:44.104Z,70
2017-08-27T08:12:24.705Z,70
2017-08-27T08:13:05.271Z,75
2017-08-27T08:13:45.792Z,80
2017-08-27T08:14:26.364Z,80
2017-08-27T08:15:06.926Z,80
2017-08-27T08:15:47.462Z,80
2017-08-27T08:16:28.029Z,85
2017-08-27T08:17:08.587Z,90
2017-08-27T08:17:49.113Z,90
2017-08-27T08:18:29.662Z,95
2017-08-27T08:19:10.219Z,90
2017-08-27T08:19:50.768Z,90
2017-08-27T08:20:31.386Z,85
2017-08-27T08:21:11.848Z,80
2017-08-27T08:21:52.436Z,80
2017-08-27T08:22:33.038Z,75
2017-08-27T08:23:13.551Z,75
2017-08-27T08:23:54.079Z,70
2017-08-27T08:24:34.633Z,70
2017-08-27T08:25:15.189Z,65
2017-08-27T08:25:55.804Z,65
2017-08-27T08:26:36.272Z,65
2017-08-27T08:27:16.832Z,60
2017-08-27T08:27:57.391Z,60
2017-08-27T08:28:37.957Z,60
2017-08-27T08:29:18.548Z,60
2017-08-27T08:29:59.124Z,60
2017-08-27T08:30:39.691Z,60
2017-08-27T08:31:20.287Z,60
2017-08-27T08:32:00.824Z,60
2017-08-27T08:32:41.383Z,60
2017-08-27T08:33:21.915Z,60
2017-08-27T08:34:02.474Z,60
2017-08-27T08:34:43.010Z,60
2017-08-27T08:35:23.564Z,60
2017-08-27T08:36:04.124Z,60
2017-08-27T08:36:44.696Z,60
2017-08-27T08:37:25.255Z,60
2017-08-27T08:38:05.838Z,60
2017-08-27T08:38:46.441Z,60
2017-08-27T08:39:26.983Z,60
2017-08-27T08:40:07.531Z,60
2017-08-27T08:40:48.062Z,60
2017-08-27T08:41:28.661Z,60
2017-08-27T08:42:09.250Z,60
2017-08-27T08:42:49.808Z,60
2017-08-27T08:43:30.374Z,60
2017-08-27T08:44:10.942Z,60
2017-08-27T08:44:51.534Z,60
2017-08-27T08:45:32.094Z,60
2017-08-27T08:46:12.672Z,60
2017-08-27T08:46:53.231Z,60
2017-08-27T08:47:33.768Z,65
2017-08-27T08:48:14.344Z,65
2017-08-27T08:48:54.897Z,65
2017-08-27T08:49:35.448Z,65
2017-08-27T08:50:15.992Z,70
2017-08-27T08:50:56.552Z,70
2017-08-27T08:51:37.127Z,70
2017-08-27T08:52:17.695Z,75
2017-08-27T08:52:58.272Z,75
2017-08-27T08:53:38.830Z,75
2017-08-27T08:54:19.382Z,75
2017-08-27T08:54:59.941Z,75
2017-08-27T08:55:40.513Z,75
2017-08-27T08:56:21.040Z,75
2017-08-27T08:57:01.622Z,75
2017-08-27T08:57:42.197Z,75
2017-08-27T08:58:22.782Z,75
2017-08-27T08:59:03.356Z,75
2017-08-27T08:59:43.905Z,75
2017-08-27T09:00:24.465Z,70
2017-08-27T09:01:05.029Z,70
2017-08-27T09:01:45.594Z,70
2017-08-27T09:02:26.207Z,70
2017-08-27T09:03:06.765Z,70
2017-08-27T09:03:47.319Z,70
2017-08-27T09:04:27.878Z,70
2017-08-27T09:05:08.463Z,70
2017-08-27T09:05:49.045Z,70
2017-08-27T09:06:29.600Z,75
2017-08-27T09:07:10.176Z,70
2017-08-27T09:07:50.739Z,70
2017-08-27T09:08:31.360Z,70
2017-08-27T09:09:11.914Z,70
2017-08-27T09:09:52.515Z,70
2017-08-27T09:10:33.064Z,70
2017-08-27T09:11:13.653Z,70
2017-08-27T09:11:54.240Z,70
2017-08-27T09:12:34.811Z,75
2017-08-27T09:13:15.375Z,75
2017-08-27T09:13:55.953Z,75
2017-08-27T09:14:36.518Z,80
2017-08-27T09:15:17.085Z,75
2017-08-27T09:15:57.644Z,75
2017-08-27T09:16:38.201Z,75
2017-08-27T09:17:18.749Z,70
2017-08-27T09:17:59.317Z,70
2017-08-27T09:18:39.890Z,65
2017-08-27T09:19:20.463Z,65
2017-08-27T09:20:01.032Z,65
2017-08-27T09:20:41.605Z,65
2017-08-27T09:21:22.165Z,65
2017-08-27T09:22:02.733Z,65
2017-08-27T09:22:43.298Z,60
2017-08-27T09:23:23.876Z,60
2017-08-27T09:24:04.426Z,65
2017-08-27T09:24:44.997Z,65
2017-08-27T09:25:25.574Z,65
2017-08-27T09:26:06.150Z,65
2017-08-27T09:26:46.712Z,65
2017-08-27T09:27:27.287Z,70
2017-08-27T09:28:07.851Z,75
2017-08-27T09:28:48.405Z,80
2017-08-27T09:29:28.961Z,80
2017-08-27T09:30:09.528Z,80
2017-08-27T09:30:50.093Z,80
2017-08-27T09:31:30.649Z,80
2017-08-27T09:32:11.229Z,80
2017-08-27T09:32:51.816Z,80
2017-08-27T09:33:32.371Z,75
2017-08-27T09:34:12.953Z,75
2017-08-27T09:34:53.554Z,75
2017-08-27T09:35:34.124Z,75
2017-08-27T09:36:14.693Z,75
2017-08-27T09:36:55.245Z,70
2017-08-27T09:37:35.790Z,70
2017-08-27T09:38:16.346Z,70
2017-08-27T09:38:56.925Z,70
2017-08-27T09:39:37.527Z,70
2017-08-27T09:40:18.080Z,65
2017-08-27T09:40:58.650Z,60
2017-08-27T09:41:39.220Z,60
2017-08-27T09:42:19.789Z,60
2017-08-27T09:43:00.360Z,60
2017-08-27T09:43:40.932Z,60
2017-08-27T09:44:21.507Z,60
2017-08-27T09:45:02.084Z,60
2017-08-27T09:45:42.675Z,60
2017-08-27T09:46:23.238Z,65
2017-08-27T09:47:03.807Z,65
2017-08-27T09:47:44.382Z,65
2017-08-27T09:48:24.953Z,65
2017-08-27T09:49:05.519Z,65